Overview Statistics Trail Chart Weather Telemetry Raw packets
 

This is the latest recevied weather packets stored in our database for station/object SP4MGL-10. If no packets are shown the sender has not sent any weather packets the latest 10 day(s).

<< 21 22 23 24 >>
Time Temp. Humidity Pressure Rain* Wind** Luminosity Snow
1787970509 17.22° C 59% 1011.6 hPa - - - -
1787969608 17.22° C 59% 1012 hPa - - - -
1787968708 17.22° C 58% 1012 hPa - - - -
1787967808 17.22° C 58% 1012.2 hPa - - - -
1787966908 17.22° C 57% 1012.3 hPa - - - -
1787966008 17.22° C 57% 1012.4 hPa - - - -
1787965108 17.22° C 57% 1012.5 hPa - - - -
1787964207 17.22° C 57% 1012.8 hPa - - - -
1787963307 17.78° C 56% 1013 hPa - - - -
1787962407 17.78° C 55% 1013 hPa - - - -
1787961507 17.78° C 54% 1013.1 hPa - - - -
1787960607 18.33° C 53% 1013.5 hPa - - - -
1787959708 18.89° C 53% 1013.8 hPa - - - -
1787958810 18.89° C 52% 1013.9 hPa - - - -
1787957910 20.56° C 48% 1014.1 hPa - - - -
1787957424 26.11° C 41% 1014.2 hPa - - - -
1787957268 25° C 40% 1014.3 hPa - - - -
1787957257 25.56° C 40% 1014.2 hPa - - - -
1787954065 18.89° C 52% 1015.1 hPa - - - -
1787953292 19.44° C 52% 1015.5 hPa - - - -
1787952392 19.44° C 52% 1015.5 hPa - - - -
1787951492 19.44° C 51% 1015.1 hPa - - - -
1787951398 19.44° C 50% 1015.2 hPa - - - -
1787951294 22.22° C 44% 998.8 hPa - - - -

* Rain since midnight (hover to see other rain measurements)
** Current wind speed in m/s (hover to see current wind gust speed)